Aviation Digital Data Service (ADDS)

Output produced by METARs form (0228 UTC 26 April 2019)
found at http://www.aviationweather.gov/metar/data/
 
METAR text: RJFY 250130Z 26005KT 190V300 5000 BR SCT005 SCT010 BKN015 23/20 Q1006 RMK 3ST005 4ST010 5CU015 A2971
Conditions at: RJFY (KANOYA (JMSDF) , JP) observed 0130 UTC 25 April 2019
Temperature: 23.0°C (73°F)
Dewpoint: 20.0°C (68°F) [RH = 83%]
Pressure (altimeter): 29.70 inches Hg (1006.0 mb)
Winds: from the W (260 degrees) at 6 MPH (5 knots; 2.6 m/s)
Visibility: 3 miles ( 5 km)
Ceiling: 1500 feet AGL
Clouds: scattered clouds at 500 feet AGL
scattered clouds at 1000 feet AGL
broken clouds at 1500 feet AGL
Weather: BR  (mist)

METAR text: RJFY 250024Z 23004KT 180V260 3200 BR FEW003 SCT005 BKN035 21/20 Q1006 RMK 1ST003 4ST005 7CU035 A2971
Conditions at: RJFY (KANOYA (JMSDF) , JP) observed 0024 UTC 25 April 2019
Temperature: 21.0°C (70°F)
Dewpoint: 20.0°C (68°F) [RH = 94%]
Pressure (altimeter): 29.70 inches Hg (1006.0 mb)
Winds: from the SW (230 degrees) at 5 MPH (4 knots; 2.1 m/s)
Visibility: 1.99 miles (3.20 km)
Ceiling: 3500 feet AGL
Clouds: few clouds at 300 feet AGL
scattered clouds at 500 feet AGL
broken clouds at 3500 feet AGL
Weather: BR  (mist)

METAR text: RJFY 242227Z 34002KT 3100 -SHRA BR SCT001 BKN005 BKN025 20/19 Q1005 RMK 3ST001 6ST005 7CU025 A2970
Conditions at: RJFY (KANOYA (JMSDF) , JP) observed 2227 UTC 24 April 2019
Temperature: 20.0°C (68°F)
Dewpoint: 19.0°C (66°F) [RH = 94%]
Pressure (altimeter): 29.68 inches Hg (1005.0 mb)
Winds: from the NNW (340 degrees) at 2 MPH (2 knots; 1.0 m/s)
Visibility: 1.93 miles (3.11 km)
Ceiling: 500 feet AGL
Clouds: scattered clouds at 100 feet AGL
broken clouds at 500 feet AGL
broken clouds at 2500 feet AGL
Weather: -SHRA BR  (light rain showers, mist)

METAR text: RJFY 242120Z 09001KT 4900 -SHRA BR FEW001 BKN005 BKN025 20/19 Q1005 RMK 2ST001 5ST005 7CU025 A2969
Conditions at: RJFY (KANOYA (JMSDF) , JP) observed 2120 UTC 24 April 2019
Temperature: 20.0°C (68°F)
Dewpoint: 19.0°C (66°F) [RH = 94%]
Pressure (altimeter): 29.68 inches Hg (1005.0 mb)
Winds: from the E (90 degrees) at 1 MPH (1 knots; 0.5 m/s)
Visibility: 3 miles ( 5 km)
Ceiling: 500 feet AGL
Clouds: few clouds at 100 feet AGL
broken clouds at 500 feet AGL
broken clouds at 2500 feet AGL
Weather: -SHRA BR  (light rain showers, mist)

METAR text: RJFY 242035Z 05003KT 5000 -SHRA BR FEW001 BKN005 BKN025 20/19 Q1005 RMK 1ST001 5ST005 7CU025 A2969
Conditions at: RJFY (KANOYA (JMSDF) , JP) observed 2035 UTC 24 April 2019
Temperature: 20.0°C (68°F)
Dewpoint: 19.0°C (66°F) [RH = 94%]
Pressure (altimeter): 29.68 inches Hg (1005.0 mb)
Winds: from the NE (50 degrees) at 3 MPH (3 knots; 1.5 m/s)
Visibility: 3 miles ( 5 km)
Ceiling: 500 feet AGL
Clouds: few clouds at 100 feet AGL
broken clouds at 500 feet AGL
broken clouds at 2500 feet AGL
Weather: -SHRA BR  (light rain showers, mist)

METAR text: RJFY 241909Z 26003KT 5000 -SHRA BR FEW005 BKN015 OVC020 FEW020CB 20/19 Q1005 RMK 2ST005 5CU015 8CU020 2CB020 A2970 CB 5KM NE MOV NE
Conditions at: RJFY (KANOYA (JMSDF) , JP) observed 1909 UTC 24 April 2019
Temperature: 20.0°C (68°F)
Dewpoint: 19.0°C (66°F) [RH = 94%]
Pressure (altimeter): 29.68 inches Hg (1005.0 mb)
Winds: from the W (260 degrees) at 3 MPH (3 knots; 1.5 m/s)
Visibility: 3 miles ( 5 km)
Ceiling: 1500 feet AGL
Clouds: few clouds at 500 feet AGL
broken clouds at 1500 feet AGL
overcast cloud deck at 2000 feet AGL
few clouds at 2000 feet AGL
Weather: -SHRA BR  (light rain showers, mist)

METAR text: RJFY 241838Z 25003KT 4900 +SHRA BR FEW005 BKN015 OVC020 SCT020CB 20/19 Q1006 RMK 2ST005 5CU015 8CU020 3CB020 A2971 CB OHD MOV NE RI++
Conditions at: RJFY (KANOYA (JMSDF) , JP) observed 1838 UTC 24 April 2019
Temperature: 20.0°C (68°F)
Dewpoint: 19.0°C (66°F) [RH = 94%]
Pressure (altimeter): 29.70 inches Hg (1006.0 mb)
Winds: from the WSW (250 degrees) at 3 MPH (3 knots; 1.5 m/s)
Visibility: 3 miles ( 5 km)
Ceiling: 1500 feet AGL
Clouds: few clouds at 500 feet AGL
broken clouds at 1500 feet AGL
overcast cloud deck at 2000 feet AGL
scattered clouds at 2000 feet AGL
Weather: +SHRA BR  (heavy rain showers, mist)

METAR text: RJFY 241825Z 31002KT 5000 SHRA BR FEW005 SCT010 OVC020 FEW020CB 20/19 Q1005 RMK 1ST005 3CU010 8CU020 2CB020 A2970 CB 5KM NE MOV NE
Conditions at: RJFY (KANOYA (JMSDF) , JP) observed 1825 UTC 24 April 2019
Temperature: 20.0°C (68°F)
Dewpoint: 19.0°C (66°F) [RH = 94%]
Pressure (altimeter): 29.68 inches Hg (1005.0 mb)
Winds: from the NW (310 degrees) at 2 MPH (2 knots; 1.0 m/s)
Visibility: 3 miles ( 5 km)
Ceiling: 2000 feet AGL
Clouds: few clouds at 500 feet AGL
scattered clouds at 1000 feet AGL
overcast cloud deck at 2000 feet AGL
few clouds at 2000 feet AGL
Weather: SHRA BR  (rain showers, mist)

METAR text: RJFY 241802Z 23003KT 200V270 4900 +SHRA BR FEW005 SCT010 OVC020 FEW020CB 20/19 Q1006 RMK 1ST005 3CU010 8CU020 2CB020 A2971 CB OHD MOV NE
Conditions at: RJFY (KANOYA (JMSDF) , JP) observed 1802 UTC 24 April 2019
Temperature: 20.0°C (68°F)
Dewpoint: 19.0°C (66°F) [RH = 94%]
Pressure (altimeter): 29.70 inches Hg (1006.0 mb)
Winds: from the SW (230 degrees) at 3 MPH (3 knots; 1.5 m/s)
Visibility: 3 miles ( 5 km)
Ceiling: 2000 feet AGL
Clouds: few clouds at 500 feet AGL
scattered clouds at 1000 feet AGL
overcast cloud deck at 2000 feet AGL
few clouds at 2000 feet AGL
Weather: +SHRA BR  (heavy rain showers, mist)